Norfolk, Virginia
Traffic Map
Current Weather Conditions
Norfolk, Virginia
Overcast
Overcast
76°
Feels Like: 76°
Wind Chill: 76° Ceiling: 1500
Heat Index: 76° Visibility: 10mi
Dew Point: 71° Wind: 14mph
Humidity: 85% Direction: 230° (SW)
Pressure: 30.11in Gusts: 0mph
Raw Report DataKORF 290951Z 23012KT 10SM OVC015 24/22 A3011 RMK AO2 TSE00 SLP197 T02440217
Traffic Incident Summary
Active as of:
Severity:
Category:
InformationThere was an issue retrieving the traffic information for this location. Please try a different location or try again shortly.
Advertisements
Track Severe Weather on mobile